createdAt,value
2017-09-17T00:01:13.854Z,92.10
2017-09-17T00:03:42.242Z,91.60
2017-09-17T00:06:10.634Z,91.40
2017-09-17T00:08:39.012Z,91.50
2017-09-17T00:11:07.461Z,91.60
2017-09-17T00:13:35.849Z,91.80
2017-09-17T00:16:04.226Z,91.80
2017-09-17T00:18:32.622Z,91.90
2017-09-17T00:21:00.998Z,91.80
2017-09-17T00:23:29.369Z,91.70
2017-09-17T00:25:58.531Z,91.70
2017-09-17T00:28:26.918Z,91.80
2017-09-17T00:30:55.314Z,92.10
2017-09-17T00:33:24.077Z,92.40
2017-09-17T00:35:52.458Z,92.20
2017-09-17T00:38:20.847Z,92.10
2017-09-17T00:40:49.255Z,92.50
2017-09-17T00:43:17.651Z,92.00
2017-09-17T00:45:46.789Z,91.70
2017-09-17T00:48:15.207Z,91.70
2017-09-17T00:50:43.618Z,91.60
2017-09-17T00:53:12.049Z,91.80
2017-09-17T00:55:41.009Z,91.90
2017-09-17T00:58:09.392Z,92.10
2017-09-17T01:00:37.764Z,92.30
2017-09-17T01:03:06.171Z,92.40
2017-09-17T01:05:34.540Z,92.70
2017-09-17T01:08:02.936Z,92.80
2017-09-17T01:10:31.366Z,92.60
2017-09-17T01:12:59.760Z,92.60
2017-09-17T01:15:28.134Z,92.10
2017-09-17T01:17:56.562Z,92.10
2017-09-17T01:20:24.962Z,92.50
2017-09-17T01:22:54.119Z,92.30
2017-09-17T01:25:22.594Z,92.30
2017-09-17T01:27:50.999Z,92.00
2017-09-17T01:30:19.369Z,92.20
2017-09-17T01:32:47.805Z,92.40
2017-09-17T01:35:16.178Z,92.10
2017-09-17T01:37:44.922Z,92.10
2017-09-17T01:40:13.334Z,91.80
2017-09-17T01:42:41.754Z,92.10
2017-09-17T01:45:11.006Z,92.10
2017-09-17T01:47:40.190Z,92.30
2017-09-17T01:50:09.323Z,92.30
2017-09-17T01:52:37.694Z,92.30
2017-09-17T01:55:06.107Z,92.60
2017-09-17T01:57:34.483Z,92.60
2017-09-17T02:00:02.894Z,92.60
2017-09-17T02:02:31.549Z,92.60
2017-09-17T02:04:59.926Z,92.50
2017-09-17T02:07:28.293Z,92.40
2017-09-17T02:09:56.691Z,92.30
2017-09-17T02:12:25.090Z,92.30
2017-09-17T02:14:53.467Z,92.80
2017-09-17T02:17:21.882Z,92.60
2017-09-17T02:19:50.296Z,92.70
2017-09-17T02:22:18.670Z,92.60
2017-09-17T02:24:47.104Z,92.80
2017-09-17T02:27:16.229Z,92.50
2017-09-17T02:29:44.591Z,92.40
2017-09-17T02:32:12.993Z,92.50
2017-09-17T02:34:41.362Z,92.50
2017-09-17T02:37:09.767Z,92.50
2017-09-17T02:39:38.166Z,92.80
2017-09-17T02:42:06.564Z,93.10
2017-09-17T02:44:35.701Z,93.00
2017-09-17T02:49:38.542Z,93.00
2017-09-17T02:52:06.955Z,93.10
2017-09-17T02:54:36.101Z,93.10
2017-09-17T02:57:04.509Z,93.10
2017-09-17T02:59:32.914Z,93.10
2017-09-17T03:02:02.064Z,93.30
2017-09-17T03:04:31.205Z,93.20
2017-09-17T03:07:00.391Z,92.80
2017-09-17T03:09:29.536Z,92.80
2017-09-17T03:11:57.902Z,92.80
2017-09-17T03:14:26.346Z,92.80
2017-09-17T03:16:55.850Z,93.00
2017-09-17T03:19:24.985Z,93.20
2017-09-17T03:21:53.389Z,93.20
2017-09-17T03:24:21.765Z,93.00
2017-09-17T03:26:50.154Z,93.20
2017-09-17T03:29:18.574Z,93.10
2017-09-17T03:31:46.948Z,93.00
2017-09-17T03:34:16.109Z,93.10
2017-09-17T03:36:44.514Z,93.10
2017-09-17T03:39:13.642Z,92.80
2017-09-17T03:41:42.014Z,92.80
2017-09-17T03:44:10.409Z,92.60
2017-09-17T03:46:38.771Z,92.20
2017-09-17T03:49:07.143Z,92.40
2017-09-17T03:51:35.578Z,92.20
2017-09-17T03:54:03.949Z,92.60
2017-09-17T03:56:32.336Z,92.80
2017-09-17T03:59:00.741Z,92.90
2017-09-17T04:01:29.879Z,92.90
2017-09-17T04:03:58.244Z,92.80
2017-09-17T04:06:26.666Z,93.10
2017-09-17T04:08:55.039Z,93.50
2017-09-17T04:11:23.400Z,93.40
2017-09-17T04:13:51.816Z,93.30
2017-09-17T04:16:20.186Z,93.20
2017-09-17T04:18:48.550Z,93.40
2017-09-17T04:21:16.941Z,93.60
2017-09-17T04:23:45.305Z,93.50
2017-09-17T04:26:13.666Z,93.60
2017-09-17T04:28:42.059Z,93.40
2017-09-17T04:31:10.430Z,93.20
2017-09-17T04:33:38.791Z,93.50
2017-09-17T04:36:07.218Z,93.30
2017-09-17T04:38:35.595Z,93.40
2017-09-17T04:41:03.953Z,93.30
2017-09-17T04:43:32.557Z,93.50
2017-09-17T04:46:01.694Z,93.60
2017-09-17T04:48:30.075Z,93.50
2017-09-17T04:50:58.466Z,93.50
2017-09-17T04:53:26.926Z,93.60
2017-09-17T04:55:55.314Z,93.60
2017-09-17T04:58:23.802Z,93.30
2017-09-17T05:00:52.170Z,93.60
2017-09-17T05:03:20.541Z,93.60
2017-09-17T05:05:49.147Z,93.50
2017-09-17T05:08:17.547Z,93.40
2017-09-17T05:10:45.950Z,93.20
2017-09-17T05:15:48.946Z,93.30
2017-09-17T05:18:17.377Z,93.10
2017-09-17T05:20:45.754Z,93.30
2017-09-17T05:23:14.139Z,93.40
2017-09-17T05:25:42.726Z,93.50
2017-09-17T05:28:11.103Z,93.70
2017-09-17T05:30:39.465Z,93.80
2017-09-17T05:33:07.859Z,94.00
2017-09-17T05:35:36.230Z,94.00
2017-09-17T05:38:04.623Z,93.70
2017-09-17T05:40:33.078Z,93.60
2017-09-17T05:43:01.457Z,93.10
2017-09-17T05:45:29.841Z,92.70
2017-09-17T05:47:58.303Z,92.60
2017-09-17T05:50:27.452Z,92.00
2017-09-17T05:52:55.851Z,91.90
2017-09-17T05:55:24.273Z,91.50
2017-09-17T05:57:52.782Z,91.40
2017-09-17T06:00:21.620Z,91.40
2017-09-17T06:02:50.813Z,91.80
2017-09-17T06:05:19.966Z,91.20
2017-09-17T06:07:48.341Z,91.20
2017-09-17T06:10:16.749Z,91.40
2017-09-17T06:12:45.127Z,91.00
2017-09-17T06:15:13.506Z,91.00
2017-09-17T06:17:41.982Z,90.70
2017-09-17T06:20:10.376Z,90.40
2017-09-17T06:22:38.766Z,90.30
2017-09-17T06:25:07.182Z,90.20
2017-09-17T06:27:35.555Z,90.60
2017-09-17T06:30:04.029Z,91.00
2017-09-17T06:32:32.445Z,91.50
2017-09-17T06:35:00.840Z,90.60
2017-09-17T06:37:29.211Z,90.00
2017-09-17T06:39:57.650Z,90.20
2017-09-17T06:42:26.087Z,88.80
2017-09-17T06:44:54.565Z,88.20
2017-09-17T06:47:23.792Z,87.90
2017-09-17T06:49:52.319Z,87.20
2017-09-17T06:52:20.695Z,86.90
2017-09-17T06:54:49.106Z,86.40
2017-09-17T06:57:17.484Z,85.10
2017-09-17T06:59:45.885Z,84.70
2017-09-17T07:02:15.108Z,84.90
2017-09-17T07:04:43.560Z,84.80
2017-09-17T07:07:12.730Z,85.40
2017-09-17T07:09:41.188Z,85.40
2017-09-17T07:12:09.667Z,83.20
2017-09-17T07:14:38.047Z,84.00
2017-09-17T07:17:06.456Z,85.10
2017-09-17T07:19:34.830Z,85.40
2017-09-17T07:22:03.249Z,84.10
2017-09-17T07:24:31.691Z,83.00
2017-09-17T07:27:00.229Z,83.50
2017-09-17T07:29:29.112Z,83.30
2017-09-17T07:31:57.544Z,83.70
2017-09-17T07:34:25.909Z,83.80
2017-09-17T07:36:54.364Z,83.10
2017-09-17T07:39:22.778Z,84.40
2017-09-17T07:41:51.181Z,84.70
2017-09-17T07:44:19.577Z,85.00
2017-09-17T07:46:48.010Z,84.60
2017-09-17T07:49:16.388Z,84.90
2017-09-17T07:51:44.766Z,86.00
2017-09-17T07:54:13.430Z,87.20
2017-09-17T07:56:41.806Z,86.60
2017-09-17T07:59:10.189Z,86.60
2017-09-17T08:01:38.604Z,85.40
2017-09-17T08:04:07.814Z,83.70
2017-09-17T08:06:36.226Z,83.70
2017-09-17T08:09:04.793Z,83.50
2017-09-17T08:11:33.170Z,83.90
2017-09-17T08:14:01.576Z,84.00
2017-09-17T08:16:30.325Z,82.90
2017-09-17T08:18:59.625Z,82.00
2017-09-17T08:21:28.078Z,82.00
2017-09-17T08:23:57.299Z,80.10
2017-09-17T08:26:26.487Z,79.30
2017-09-17T08:28:55.664Z,78.40
2017-09-17T08:31:24.105Z,78.50
2017-09-17T08:33:52.483Z,76.40
2017-09-17T08:36:20.859Z,75.20
2017-09-17T08:38:49.275Z,74.20
2017-09-17T08:41:17.654Z,74.30
2017-09-17T08:43:46.044Z,73.50
2017-09-17T08:46:14.455Z,71.50
2017-09-17T08:48:42.834Z,71.30
2017-09-17T08:51:11.269Z,71.50
2017-09-17T08:53:39.683Z,71.40
2017-09-17T08:56:08.831Z,73.10
2017-09-17T08:58:38.768Z,73.10
2017-09-17T09:01:07.261Z,74.90
2017-09-17T09:03:35.817Z,75.20
2017-09-17T09:06:04.215Z,76.50
2017-09-17T09:08:32.647Z,77.50
2017-09-17T09:11:01.060Z,75.80
2017-09-17T09:13:29.458Z,75.40
2017-09-17T09:15:58.699Z,75.90
2017-09-17T09:18:27.081Z,75.90
2017-09-17T09:20:55.458Z,74.80
2017-09-17T09:23:24.180Z,74.20
2017-09-17T09:25:52.565Z,72.60
2017-09-17T09:28:20.943Z,72.70
2017-09-17T09:30:49.355Z,71.70
2017-09-17T09:33:17.773Z,71.90
2017-09-17T09:35:46.147Z,71.20
2017-09-17T09:38:14.605Z,72.30
2017-09-17T09:40:43.098Z,71.10
2017-09-17T09:43:11.486Z,70.20
2017-09-17T09:45:39.985Z,69.90
2017-09-17T09:48:08.368Z,69.00
2017-09-17T09:50:36.759Z,67.40
2017-09-17T09:53:05.159Z,68.80
2017-09-17T09:55:34.332Z,66.50
2017-09-17T09:58:02.764Z,66.40
2017-09-17T10:00:31.186Z,67.60
2017-09-17T10:02:59.586Z,67.80
2017-09-17T10:05:28.741Z,62.90
2017-09-17T10:07:57.530Z,62.70
2017-09-17T10:10:25.956Z,61.90
2017-09-17T10:12:55.099Z,59.70
2017-09-17T10:15:23.543Z,59.60
2017-09-17T10:17:51.929Z,59.50
2017-09-17T10:20:20.308Z,60.70
2017-09-17T10:22:48.851Z,60.10
2017-09-17T10:25:17.243Z,57.90
2017-09-17T10:27:45.642Z,58.60
2017-09-17T10:30:14.127Z,57.80
2017-09-17T10:32:42.536Z,56.20
2017-09-17T10:35:10.954Z,55.90
2017-09-17T10:37:39.396Z,55.60
2017-09-17T10:40:08.599Z,54.30
2017-09-17T10:42:37.151Z,54.30
2017-09-17T10:45:05.689Z,54.80
2017-09-17T10:47:34.119Z,54.00
2017-09-17T10:50:02.533Z,52.60
2017-09-17T10:52:30.976Z,51.60
2017-09-17T10:54:59.365Z,50.80
2017-09-17T10:57:27.759Z,50.50
2017-09-17T10:59:56.199Z,52.00
2017-09-17T11:02:24.607Z,53.90
2017-09-17T11:04:53.895Z,53.70
2017-09-17T11:07:22.299Z,52.50
2017-09-17T11:09:50.684Z,51.20
2017-09-17T11:12:19.067Z,50.00
2017-09-17T11:14:47.626Z,50.30
2017-09-17T11:17:16.024Z,50.00
2017-09-17T11:19:44.508Z,48.10
2017-09-17T11:22:12.926Z,46.90
2017-09-17T11:24:42.071Z,48.00
2017-09-17T11:27:10.483Z,47.90
2017-09-17T11:29:39.682Z,50.60
2017-09-17T11:32:08.851Z,51.10
2017-09-17T11:34:37.458Z,51.10
2017-09-17T11:37:05.946Z,50.00
2017-09-17T11:39:34.372Z,50.00
2017-09-17T11:42:02.752Z,48.60
2017-09-17T11:44:31.314Z,47.50
2017-09-17T11:46:59.721Z,46.50
2017-09-17T11:49:28.899Z,46.30
2017-09-17T11:51:57.326Z,45.20
2017-09-17T11:54:25.733Z,45.20
2017-09-17T11:56:54.310Z,44.40
2017-09-17T11:59:23.535Z,42.70
2017-09-17T12:01:51.916Z,42.60
2017-09-17T12:04:20.343Z,41.80
2017-09-17T12:06:48.852Z,42.20
2017-09-17T12:09:18.174Z,43.50
2017-09-17T12:11:46.598Z,43.50
2017-09-17T12:14:15.905Z,44.90
2017-09-17T12:16:44.319Z,44.90
2017-09-17T12:19:13.479Z,45.40
2017-09-17T12:21:41.960Z,45.40
2017-09-17T12:24:10.367Z,47.20
2017-09-17T12:26:39.615Z,44.20
2017-09-17T12:29:08.194Z,44.10
2017-09-17T12:31:37.295Z,44.80
2017-09-17T12:34:05.690Z,43.40
2017-09-17T12:36:34.138Z,43.20
2017-09-17T12:39:02.927Z,44.40
2017-09-17T12:41:31.347Z,44.80
2017-09-17T12:43:59.775Z,43.70
2017-09-17T12:46:28.153Z,44.70
2017-09-17T12:48:56.708Z,46.00
2017-09-17T12:51:25.216Z,47.40
2017-09-17T12:53:53.680Z,46.80
2017-09-17T12:56:23.548Z,46.20
2017-09-17T12:58:52.781Z,45.00
2017-09-17T13:01:22.025Z,45.50
2017-09-17T13:03:50.512Z,45.50
2017-09-17T13:06:18.984Z,47.10
2017-09-17T13:08:47.385Z,48.70
2017-09-17T13:11:15.833Z,53.00
2017-09-17T13:13:44.516Z,56.30
2017-09-17T13:16:13.027Z,55.80
2017-09-17T13:18:41.428Z,58.20
2017-09-17T13:21:09.929Z,59.60
2017-09-17T13:23:39.259Z,63.20
2017-09-17T13:26:07.663Z,63.20
2017-09-17T13:28:36.302Z,64.30
2017-09-17T13:31:04.724Z,67.30
2017-09-17T13:33:33.235Z,69.20
2017-09-17T13:36:01.691Z,73.20
2017-09-17T13:38:30.150Z,75.40
2017-09-17T13:40:58.755Z,74.70
2017-09-17T13:43:27.289Z,74.70
2017-09-17T13:45:56.460Z,82.30
2017-09-17T13:48:24.986Z,82.30
2017-09-17T13:50:53.435Z,82.40
2017-09-17T13:53:22.597Z,86.70
2017-09-17T13:55:51.119Z,86.60
2017-09-17T13:58:20.456Z,88.00
2017-09-17T14:00:49.039Z,87.90
2017-09-17T14:03:19.351Z,86.30
2017-09-17T14:09:05.925Z,88.80
2017-09-17T14:11:34.426Z,90.20
2017-09-17T14:14:03.737Z,92.00
2017-09-17T14:16:32.215Z,92.00
2017-09-17T14:19:02.059Z,91.80
2017-09-17T14:21:30.528Z,91.70
2017-09-17T14:23:59.215Z,91.30
2017-09-17T14:26:28.220Z,91.80
2017-09-17T14:28:56.687Z,91.20
2017-09-17T14:31:25.152Z,87.00
2017-09-17T14:33:53.585Z,85.90
2017-09-17T14:36:21.967Z,90.00
2017-09-17T14:38:50.357Z,91.20
2017-09-17T14:41:18.838Z,91.60
2017-09-17T14:43:47.223Z,92.20
2017-09-17T14:46:15.606Z,92.40
2017-09-17T14:48:44.023Z,88.80
2017-09-17T14:51:12.611Z,87.70
2017-09-17T14:53:41.024Z,91.50
2017-09-17T14:56:09.426Z,88.80
2017-09-17T14:58:37.803Z,82.20
2017-09-17T15:01:06.197Z,75.60
2017-09-17T15:03:35.369Z,66.10
2017-09-17T15:06:03.743Z,66.10
2017-09-17T15:08:32.134Z,73.40
2017-09-17T15:11:00.614Z,67.70
2017-09-17T15:13:29.002Z,71.40
2017-09-17T15:15:58.275Z,63.70
2017-09-17T15:18:26.734Z,63.60
2017-09-17T15:20:55.137Z,62.00
2017-09-17T15:23:23.595Z,61.40
2017-09-17T15:25:52.015Z,59.50
2017-09-17T15:28:20.390Z,60.80
2017-09-17T15:30:48.760Z,62.90
2017-09-17T15:33:17.526Z,63.00
2017-09-17T15:35:45.906Z,61.70
2017-09-17T15:38:14.317Z,61.70
2017-09-17T15:40:43.111Z,57.40
2017-09-17T15:43:12.455Z,59.80
2017-09-17T15:45:40.851Z,60.20
2017-09-17T15:48:09.275Z,59.20
2017-09-17T15:50:38.499Z,59.80
2017-09-17T15:53:06.985Z,59.80
2017-09-17T15:55:39.308Z,59.30
2017-09-17T15:58:07.788Z,60.10
2017-09-17T16:00:36.978Z,60.90
2017-09-17T16:03:05.419Z,61.50
2017-09-17T16:05:33.813Z,60.20
2017-09-17T16:08:02.200Z,60.80
2017-09-17T16:10:30.655Z,62.70
2017-09-17T16:12:59.027Z,59.40
2017-09-17T16:15:27.402Z,60.70
2017-09-17T16:17:55.812Z,61.00
2017-09-17T16:20:24.192Z,60.60
2017-09-17T16:22:53.342Z,59.90
2017-09-17T16:25:21.793Z,59.70
2017-09-17T16:27:50.178Z,60.40
2017-09-17T16:30:18.567Z,60.30
2017-09-17T16:32:47.769Z,61.20
2017-09-17T16:35:16.921Z,61.80
2017-09-17T16:37:45.305Z,61.80
2017-09-17T16:40:14.363Z,65.20
2017-09-17T16:42:42.769Z,61.30
2017-09-17T16:45:11.247Z,61.20
2017-09-17T16:47:39.703Z,61.60
2017-09-17T16:50:08.115Z,62.20
2017-09-17T16:52:36.533Z,66.90
2017-09-17T16:55:05.802Z,68.70
2017-09-17T16:57:34.178Z,68.70
2017-09-17T17:00:02.682Z,71.60
2017-09-17T17:02:32.369Z,71.60
2017-09-17T17:05:01.620Z,74.60
2017-09-17T17:07:30.070Z,74.50
2017-09-17T17:09:59.251Z,72.60
2017-09-17T17:12:27.678Z,72.60
2017-09-17T17:14:56.080Z,77.50
2017-09-17T17:17:24.549Z,73.40
2017-09-17T17:19:53.121Z,74.10
2017-09-17T17:22:21.538Z,77.20
2017-09-17T17:24:50.086Z,74.40
2017-09-17T17:27:18.485Z,75.50
2017-09-17T17:29:47.665Z,75.80
2017-09-17T17:32:16.266Z,76.20
2017-09-17T17:34:44.663Z,76.20
2017-09-17T17:37:13.034Z,78.30
2017-09-17T17:39:41.510Z,76.20
2017-09-17T17:42:10.001Z,77.10
2017-09-17T17:44:38.415Z,76.40
2017-09-17T17:47:07.612Z,79.70
2017-09-17T17:49:36.860Z,79.70
2017-09-17T17:52:05.263Z,79.70
2017-09-17T17:54:33.674Z,80.30
2017-09-17T17:57:02.824Z,80.50
2017-09-17T17:59:31.299Z,80.40
2017-09-17T18:01:59.737Z,84.50
2017-09-17T18:04:28.132Z,84.20
2017-09-17T18:06:56.523Z,84.80
2017-09-17T18:09:24.943Z,84.40
2017-09-17T18:11:53.369Z,83.50
2017-09-17T18:14:21.782Z,83.30
2017-09-17T18:16:50.450Z,85.50
2017-09-17T18:19:18.972Z,85.10
2017-09-17T18:21:47.440Z,86.40
2017-09-17T18:24:15.874Z,84.90
2017-09-17T18:26:44.249Z,85.60
2017-09-17T18:29:12.780Z,85.50
2017-09-17T18:31:41.310Z,85.20
2017-09-17T18:34:09.718Z,87.30
2017-09-17T18:36:38.204Z,87.50
2017-09-17T18:39:06.923Z,87.20
2017-09-17T18:41:35.328Z,87.00
2017-09-17T18:44:03.758Z,87.30
2017-09-17T18:46:32.293Z,87.40
2017-09-17T18:49:00.927Z,90.00
2017-09-17T18:51:30.104Z,89.40
2017-09-17T18:53:58.656Z,90.00
2017-09-17T18:56:27.265Z,88.90
2017-09-17T18:58:55.637Z,89.00
2017-09-17T19:01:24.118Z,89.20
2017-09-17T19:03:53.444Z,89.40
2017-09-17T19:06:21.853Z,88.20
2017-09-17T19:08:51.199Z,87.40
2017-09-17T19:11:19.596Z,87.40
2017-09-17T19:13:47.976Z,86.60
2017-09-17T19:16:16.726Z,88.00
2017-09-17T19:18:45.152Z,89.00
2017-09-17T19:21:13.735Z,89.30
2017-09-17T19:23:43.070Z,88.50
2017-09-17T19:26:12.232Z,89.00
2017-09-17T19:28:41.770Z,89.30
2017-09-17T19:31:10.642Z,89.10
2017-09-17T19:33:40.082Z,90.00
2017-09-17T19:36:08.507Z,89.90
2017-09-17T19:38:37.350Z,90.00
2017-09-17T19:41:05.836Z,90.20
2017-09-17T19:43:34.498Z,90.20
2017-09-17T19:46:02.935Z,88.80
2017-09-17T19:48:31.307Z,88.20
2017-09-17T19:50:59.743Z,87.90
2017-09-17T19:53:28.973Z,87.50
2017-09-17T19:55:57.415Z,87.50
2017-09-17T19:58:26.686Z,87.30
2017-09-17T20:00:55.131Z,87.30
2017-09-17T20:03:23.502Z,90.10
2017-09-17T20:05:51.943Z,89.80
2017-09-17T20:08:21.239Z,88.40
2017-09-17T20:10:49.620Z,88.30
2017-09-17T20:13:17.990Z,89.10
2017-09-17T20:15:46.391Z,88.60
2017-09-17T20:18:15.529Z,88.30
2017-09-17T20:20:43.993Z,88.20
2017-09-17T20:23:12.421Z,88.40
2017-09-17T20:25:41.026Z,88.50
2017-09-17T20:28:10.171Z,88.20
2017-09-17T20:30:38.579Z,88.30
2017-09-17T20:33:06.958Z,88.00
2017-09-17T20:35:35.338Z,87.60
2017-09-17T20:38:03.795Z,87.50
2017-09-17T20:40:33.003Z,88.20
2017-09-17T20:43:01.389Z,88.20
2017-09-17T20:45:29.825Z,88.10
2017-09-17T20:47:58.211Z,88.90
2017-09-17T20:50:26.595Z,87.70
2017-09-17T20:52:55.027Z,88.50
2017-09-17T20:55:24.183Z,88.40
2017-09-17T20:57:52.558Z,88.30
2017-09-17T21:00:20.966Z,88.30
2017-09-17T21:02:49.329Z,89.50
2017-09-17T21:05:17.744Z,89.50
2017-09-17T21:07:46.937Z,90.30
2017-09-17T21:10:16.078Z,90.60
2017-09-17T21:12:44.491Z,90.60
2017-09-17T21:15:12.911Z,91.10
2017-09-17T21:17:41.324Z,91.40
2017-09-17T21:20:09.697Z,91.00
2017-09-17T21:22:38.120Z,90.70
2017-09-17T21:25:06.491Z,90.80
2017-09-17T21:27:34.906Z,91.20
2017-09-17T21:30:03.391Z,91.30
2017-09-17T21:32:31.769Z,91.40
2017-09-17T21:35:00.186Z,91.60
2017-09-17T21:37:28.605Z,91.40
2017-09-17T21:39:57.833Z,91.30
2017-09-17T21:42:26.236Z,91.20
2017-09-17T21:44:54.695Z,91.10
2017-09-17T21:47:23.059Z,91.30
2017-09-17T21:49:51.439Z,91.20
2017-09-17T21:52:20.023Z,91.30
2017-09-17T21:54:48.389Z,91.20
2017-09-17T21:57:17.559Z,91.40
2017-09-17T21:59:45.956Z,91.40
2017-09-17T22:02:14.346Z,91.40
2017-09-17T22:04:43.517Z,91.40
2017-09-17T22:07:11.922Z,91.40
2017-09-17T22:09:41.060Z,91.50
2017-09-17T22:12:09.443Z,91.50
2017-09-17T22:14:38.176Z,91.30
2017-09-17T22:17:07.324Z,91.20
2017-09-17T22:19:35.757Z,91.20
2017-09-17T22:22:05.023Z,91.00
2017-09-17T22:24:33.410Z,91.00
2017-09-17T22:27:01.923Z,90.50
2017-09-17T22:29:30.387Z,90.60
2017-09-17T22:31:59.518Z,90.60
2017-09-17T22:34:27.885Z,90.60
2017-09-17T22:36:56.326Z,90.90
2017-09-17T22:39:24.698Z,90.30
2017-09-17T22:41:53.077Z,90.50
2017-09-17T22:44:21.483Z,91.10
2017-09-17T22:46:50.644Z,91.20
2017-09-17T22:49:19.012Z,91.20
2017-09-17T22:51:47.459Z,91.00
2017-09-17T22:54:15.830Z,91.20
2017-09-17T22:56:44.205Z,91.20
2017-09-17T22:59:12.671Z,91.00
2017-09-17T23:01:41.870Z,91.00
2017-09-17T23:04:11.030Z,90.80
2017-09-17T23:06:39.461Z,90.70
2017-09-17T23:09:07.880Z,90.60
2017-09-17T23:11:36.268Z,91.20
2017-09-17T23:14:04.721Z,90.70
2017-09-17T23:16:33.447Z,91.10
2017-09-17T23:19:01.820Z,91.10
2017-09-17T23:21:30.272Z,91.20
2017-09-17T23:23:58.630Z,91.30
2017-09-17T23:26:27.031Z,91.70
2017-09-17T23:28:55.486Z,91.30
2017-09-17T23:31:23.904Z,91.40
2017-09-17T23:33:52.310Z,91.00
2017-09-17T23:36:20.751Z,90.90
2017-09-17T23:38:49.106Z,91.10
2017-09-17T23:41:17.483Z,91.00
2017-09-17T23:43:45.919Z,91.10
2017-09-17T23:46:14.287Z,91.10
2017-09-17T23:48:42.733Z,91.40
2017-09-17T23:51:11.167Z,91.50
2017-09-17T23:53:46.401Z,91.00
2017-09-17T23:56:14.850Z,91.00
2017-09-17T23:58:43.215Z,91.20
